sensor_id;sensor_type;location;lat;lon;timestamp;pressure;altitude;pressure_sealevel;temperature;humidity
24234;BME280;12365;43.554;1.388;2022-08-19T00:01:29;100260.06;;;22.79;56.03
24234;BME280;12365;43.554;1.388;2022-08-19T00:03:57;100258.25;;;22.76;56.21
24234;BME280;12365;43.554;1.388;2022-08-19T00:06:22;100260.06;;;22.77;56.09
24234;BME280;12365;43.554;1.388;2022-08-19T00:08:48;100259.16;;;22.75;56.12
24234;BME280;12365;43.554;1.388;2022-08-19T00:11:13;100250.31;;;22.81;55.97
24234;BME280;12365;43.554;1.388;2022-08-19T00:13:39;100246.75;;;22.77;55.88
24234;BME280;12365;43.554;1.388;2022-08-19T00:16:06;100255.59;;;22.76;56.13
24234;BME280;12365;43.554;1.388;2022-08-19T00:18:33;100259.16;;;22.72;56.02
24234;BME280;12365;43.554;1.388;2022-08-19T00:20:59;100261.78;;;22.69;56.10
24234;BME280;12365;43.554;1.388;2022-08-19T00:23:25;100264.47;;;22.69;56.10
24234;BME280;12365;43.554;1.388;2022-08-19T00:25:50;100266.22;;;22.67;56.27
24234;BME280;12365;43.554;1.388;2022-08-19T00:28:17;100266.19;;;22.64;56.37
24234;BME280;12365;43.554;1.388;2022-08-19T00:30:42;100267.06;;;22.61;56.41
24234;BME280;12365;43.554;1.388;2022-08-19T00:33:08;100267.91;;;22.57;56.56
24234;BME280;12365;43.554;1.388;2022-08-19T00:35:33;100275.00;;;22.54;56.47
24234;BME280;12365;43.554;1.388;2022-08-19T00:37:59;100273.19;;;22.49;56.63
24234;BME280;12365;43.554;1.388;2022-08-19T00:40:24;100270.50;;;22.46;56.60
24234;BME280;12365;43.554;1.388;2022-08-19T00:42:50;100265.19;;;22.46;56.72
24234;BME280;12365;43.554;1.388;2022-08-19T00:45:21;100259.88;;;22.46;56.62
24234;BME280;12365;43.554;1.388;2022-08-19T00:47:47;100260.72;;;22.45;56.66
24234;BME280;12365;43.554;1.388;2022-08-19T00:50:15;100260.72;;;22.42;56.77
24234;BME280;12365;43.554;1.388;2022-08-19T00:52:43;100265.13;;;22.42;56.70
24234;BME280;12365;43.554;1.388;2022-08-19T00:55:13;100264.25;;;22.41;56.81
24234;BME280;12365;43.554;1.388;2022-08-19T00:57:42;100258.88;;;22.38;56.85
24234;BME280;12365;43.554;1.388;2022-08-19T01:00:13;100262.44;;;22.37;56.76
24234;BME280;12365;43.554;1.388;2022-08-19T01:02:40;100261.53;;;22.32;57.04
24234;BME280;12365;43.554;1.388;2022-08-19T01:05:09;100257.97;;;22.28;57.05
24234;BME280;12365;43.554;1.388;2022-08-19T01:07:37;100260.59;;;22.30;56.96
24234;BME280;12365;43.554;1.388;2022-08-19T01:10:07;100257.03;;;22.28;56.98
24234;BME280;12365;43.554;1.388;2022-08-19T01:12:33;100257.03;;;22.25;57.13
24234;BME280;12365;43.554;1.388;2022-08-19T01:14:59;100244.63;;;22.24;57.12
24234;BME280;12365;43.554;1.388;2022-08-19T01:17:25;100249.03;;;22.22;57.05
24234;BME280;12365;43.554;1.388;2022-08-19T01:19:50;100243.72;;;22.22;57.21
24234;BME280;12365;43.554;1.388;2022-08-19T01:22:28;100245.50;;;22.21;57.36
24234;BME280;12365;43.554;1.388;2022-08-19T01:24:55;100248.13;;;22.20;57.31
24234;BME280;12365;43.554;1.388;2022-08-19T01:27:21;100249.84;;;22.18;57.25
24234;BME280;12365;43.554;1.388;2022-08-19T01:29:47;100242.75;;;22.17;57.36
24234;BME280;12365;43.554;1.388;2022-08-19T01:32:15;100246.31;;;22.16;57.41
24234;BME280;12365;43.554;1.388;2022-08-19T01:34:41;100248.03;;;22.14;57.39
24234;BME280;12365;43.554;1.388;2022-08-19T01:37:11;100246.22;;;22.10;57.45
24234;BME280;12365;43.554;1.388;2022-08-19T01:39:39;100249.75;;;22.05;57.48
24234;BME280;12365;43.554;1.388;2022-08-19T01:42:05;100239.06;;;21.99;57.57
24234;BME280;12365;43.554;1.388;2022-08-19T01:44:32;100246.09;;;21.94;57.89
24234;BME280;12365;43.554;1.388;2022-08-19T01:46:58;100242.59;;;21.95;57.62
24234;BME280;12365;43.554;1.388;2022-08-19T01:49:24;100242.53;;;21.91;58.01
24234;BME280;12365;43.554;1.388;2022-08-19T01:51:52;100231.78;;;21.80;58.17
24234;BME280;12365;43.554;1.388;2022-08-19T01:54:20;100234.44;;;21.80;58.14
24234;BME280;12365;43.554;1.388;2022-08-19T01:56:46;100240.63;;;21.79;58.36
24234;BME280;12365;43.554;1.388;2022-08-19T01:59:14;100234.41;;;21.77;58.26
24234;BME280;12365;43.554;1.388;2022-08-19T02:01:41;100237.03;;;21.74;58.44
24234;BME280;12365;43.554;1.388;2022-08-19T02:04:06;100245.94;;;21.76;58.29
24234;BME280;12365;43.554;1.388;2022-08-19T02:06:32;100246.78;;;21.75;58.40
24234;BME280;12365;43.554;1.388;2022-08-19T02:08:58;100250.34;;;21.75;58.37
24234;BME280;12365;43.554;1.388;2022-08-19T02:11:29;100248.59;;;21.77;58.40
24234;BME280;12365;43.554;1.388;2022-08-19T02:13:56;100265.44;;;21.78;58.35
24234;BME280;12365;43.554;1.388;2022-08-19T02:16:22;100265.47;;;21.81;58.50
24234;BME280;12365;43.554;1.388;2022-08-19T02:18:48;100271.69;;;21.84;58.31
24234;BME280;12365;43.554;1.388;2022-08-19T02:21:15;100266.41;;;21.86;58.37
24234;BME280;12365;43.554;1.388;2022-08-19T02:23:41;100258.44;;;21.86;58.50
24234;BME280;12365;43.554;1.388;2022-08-19T02:26:06;100262.00;;;21.88;58.40
24234;BME280;12365;43.554;1.388;2022-08-19T02:28:32;100263.72;;;21.88;58.45
24234;BME280;12365;43.554;1.388;2022-08-19T02:30:59;100271.72;;;21.89;58.37
24234;BME280;12365;43.554;1.388;2022-08-19T02:33:26;100258.44;;;21.86;58.48
24234;BME280;12365;43.554;1.388;2022-08-19T02:35:51;100269.06;;;21.86;58.32
24234;BME280;12365;43.554;1.388;2022-08-19T02:38:16;100274.34;;;21.83;58.51
24234;BME280;12365;43.554;1.388;2022-08-19T02:40:53;100268.09;;;21.79;58.39
24234;BME280;12365;43.554;1.388;2022-08-19T02:43:19;100272.53;;;21.79;58.45
24234;BME280;12365;43.554;1.388;2022-08-19T02:45:48;100265.44;;;21.78;58.72
24234;BME280;12365;43.554;1.388;2022-08-19T02:48:18;100262.78;;;21.79;58.44
24234;BME280;12365;43.554;1.388;2022-08-19T02:50:45;100264.53;;;21.77;58.72
24234;BME280;12365;43.554;1.388;2022-08-19T02:53:10;100273.38;;;21.76;58.61
24234;BME280;12365;43.554;1.388;2022-08-19T02:55:42;100276.06;;;21.78;58.58
24234;BME280;12365;43.554;1.388;2022-08-19T02:58:08;100274.25;;;21.77;58.57
24234;BME280;12365;43.554;1.388;2022-08-19T03:00:34;100272.53;;;21.79;58.63
24234;BME280;12365;43.554;1.388;2022-08-19T03:02:59;100277.84;;;21.82;58.60
24234;BME280;12365;43.554;1.388;2022-08-19T03:05:25;100284.97;;;21.83;58.64
24234;BME280;12365;43.554;1.388;2022-08-19T03:07:52;100282.31;;;21.83;58.63
24234;BME280;12365;43.554;1.388;2022-08-19T03:10:17;100269.91;;;21.85;58.78
24234;BME280;12365;43.554;1.388;2022-08-19T03:12:43;100280.53;;;21.83;58.70
24234;BME280;12365;43.554;1.388;2022-08-19T03:15:08;100285.00;;;21.86;58.62
24234;BME280;12365;43.554;1.388;2022-08-19T03:17:35;100269.97;;;21.88;58.65
24234;BME280;12365;43.554;1.388;2022-08-19T03:20:00;100285.91;;;21.90;58.48
24234;BME280;12365;43.554;1.388;2022-08-19T03:22:26;100285.91;;;21.90;58.50
24234;BME280;12365;43.554;1.388;2022-08-19T03:24:52;100296.56;;;21.91;58.57
24234;BME280;12365;43.554;1.388;2022-08-19T03:27:18;100292.09;;;21.90;58.79
24234;BME280;12365;43.554;1.388;2022-08-19T03:29:43;100285.03;;;21.89;58.65
24234;BME280;12365;43.554;1.388;2022-08-19T03:32:09;100284.19;;;21.93;58.69
24234;BME280;12365;43.554;1.388;2022-08-19T03:34:37;100280.66;;;21.93;58.70
24234;BME280;12365;43.554;1.388;2022-08-19T03:37:05;100285.97;;;21.94;58.70
24234;BME280;12365;43.554;1.388;2022-08-19T03:39:31;100290.34;;;21.92;58.54
24234;BME280;12365;43.554;1.388;2022-08-19T03:41:57;100286.84;;;21.95;58.49
24234;BME280;12365;43.554;1.388;2022-08-19T03:44:25;100293.03;;;21.94;58.57
24234;BME280;12365;43.554;1.388;2022-08-19T03:46:53;100295.72;;;21.95;58.61
24234;BME280;12365;43.554;1.388;2022-08-19T03:49:21;100297.47;;;21.95;58.49
24234;BME280;12365;43.554;1.388;2022-08-19T03:51:48;100292.19;;;21.96;58.67
24234;BME280;12365;43.554;1.388;2022-08-19T03:54:16;100294.88;;;21.99;58.66
24234;BME280;12365;43.554;1.388;2022-08-19T03:56:43;100291.34;;;22.02;58.49
24234;BME280;12365;43.554;1.388;2022-08-19T03:59:15;100296.66;;;22.02;58.54
24234;BME280;12365;43.554;1.388;2022-08-19T04:01:41;100298.44;;;22.01;58.40
24234;BME280;12365;43.554;1.388;2022-08-19T04:04:06;100309.97;;;22.00;58.38
24234;BME280;12365;43.554;1.388;2022-08-19T04:06:36;100309.06;;;22.01;58.58
24234;BME280;12365;43.554;1.388;2022-08-19T04:09:05;100308.16;;;22.02;58.36
24234;BME280;12365;43.554;1.388;2022-08-19T04:11:36;100312.63;;;22.03;58.45
24234;BME280;12365;43.554;1.388;2022-08-19T04:14:03;100308.16;;;21.99;58.33
24234;BME280;12365;43.554;1.388;2022-08-19T04:16:29;100319.66;;;22.00;58.28
24234;BME280;12365;43.554;1.388;2022-08-19T04:18:56;100315.22;;;21.97;58.38
24234;BME280;12365;43.554;1.388;2022-08-19T04:21:26;100315.19;;;21.94;58.45
24234;BME280;12365;43.554;1.388;2022-08-19T04:23:52;100312.50;;;21.91;58.49
24234;BME280;12365;43.554;1.388;2022-08-19T04:26:22;100317.81;;;21.91;58.40
24234;BME280;12365;43.554;1.388;2022-08-19T04:28:48;100329.31;;;21.90;58.30
24234;BME280;12365;43.554;1.388;2022-08-19T04:31:23;100320.47;;;21.91;58.33
24234;BME280;12365;43.554;1.388;2022-08-19T04:33:55;100324.00;;;21.90;58.31
24234;BME280;12365;43.554;1.388;2022-08-19T04:36:25;100320.47;;;21.91;58.17
24234;BME280;12365;43.554;1.388;2022-08-19T04:38:54;100315.16;;;21.91;58.31
24234;BME280;12365;43.554;1.388;2022-08-19T04:41:20;100329.34;;;21.92;58.23
24234;BME280;12365;43.554;1.388;2022-08-19T04:44:04;100323.16;;;21.94;58.26
24234;BME280;12365;43.554;1.388;2022-08-19T04:46:30;100327.59;;;21.94;58.21
24234;BME280;12365;43.554;1.388;2022-08-19T04:49:01;100331.13;;;21.94;58.11
24234;BME280;12365;43.554;1.388;2022-08-19T04:51:27;100336.44;;;21.94;58.34
24234;BME280;12365;43.554;1.388;2022-08-19T04:53:55;100336.44;;;21.94;58.25
24234;BME280;12365;43.554;1.388;2022-08-19T04:56:21;100331.97;;;21.90;58.35
24234;BME280;12365;43.554;1.388;2022-08-19T04:58:48;100345.25;;;21.90;58.60
24234;BME280;12365;43.554;1.388;2022-08-19T05:01:23;100339.06;;;21.91;58.41
24234;BME280;12365;43.554;1.388;2022-08-19T05:03:49;100335.53;;;21.91;58.41
24234;BME280;12365;43.554;1.388;2022-08-19T05:06:16;100349.72;;;21.91;58.61
24234;BME280;12365;43.554;1.388;2022-08-19T05:08:43;100350.56;;;21.90;58.40
24234;BME280;12365;43.554;1.388;2022-08-19T05:11:17;100352.38;;;21.91;58.58
24234;BME280;12365;43.554;1.388;2022-08-19T05:13:44;100359.44;;;21.92;58.59
24234;BME280;12365;43.554;1.388;2022-08-19T05:16:11;100361.22;;;21.92;58.78
24234;BME280;12365;43.554;1.388;2022-08-19T05:18:37;100363.84;;;21.90;58.71
24234;BME280;12365;43.554;1.388;2022-08-19T05:21:21;100357.69;;;21.91;58.64
24234;BME280;12365;43.554;1.388;2022-08-19T05:24:06;100359.50;;;21.95;58.55
24234;BME280;12365;43.554;1.388;2022-08-19T05:26:38;100355.94;;;21.93;58.57
24234;BME280;12365;43.554;1.388;2022-08-19T05:29:05;100352.41;;;21.97;58.50
24234;BME280;12365;43.554;1.388;2022-08-19T05:31:33;100363.06;;;21.96;58.42
24234;BME280;12365;43.554;1.388;2022-08-19T05:33:58;100367.47;;;21.95;58.69
24234;BME280;12365;43.554;1.388;2022-08-19T05:36:28;100370.13;;;21.95;58.59
24234;BME280;12365;43.554;1.388;2022-08-19T05:38:54;100371.00;;;21.93;58.62
24234;BME280;12365;43.554;1.388;2022-08-19T05:41:21;100370.09;;;21.91;58.67
24234;BME280;12365;43.554;1.388;2022-08-19T05:43:48;100370.09;;;21.91;58.77
24234;BME280;12365;43.554;1.388;2022-08-19T05:46:19;100369.19;;;21.92;58.76
24234;BME280;12365;43.554;1.388;2022-08-19T05:48:45;100366.50;;;21.90;58.69
24234;BME280;12365;43.554;1.388;2022-08-19T05:51:10;100375.38;;;21.89;58.78
24234;BME280;12365;43.554;1.388;2022-08-19T05:53:36;100377.09;;;21.87;58.98
24234;BME280;12365;43.554;1.388;2022-08-19T05:56:11;100379.75;;;21.87;58.96
24234;BME280;12365;43.554;1.388;2022-08-19T05:58:37;100382.38;;;21.84;58.92
24234;BME280;12365;43.554;1.388;2022-08-19T06:01:14;100387.69;;;21.81;58.85
24234;BME280;12365;43.554;1.388;2022-08-19T06:03:40;100385.09;;;21.85;58.92
24234;BME280;12365;43.554;1.388;2022-08-19T06:06:08;100386.88;;;21.88;58.99
24234;BME280;12365;43.554;1.388;2022-08-19T06:08:35;100386.03;;;21.92;58.96
24234;BME280;12365;43.554;1.388;2022-08-19T06:11:24;100387.81;;;21.93;58.94
24234;BME280;12365;43.554;1.388;2022-08-19T06:13:52;100388.72;;;21.94;58.85
24234;BME280;12365;43.554;1.388;2022-08-19T06:16:19;100402.88;;;21.93;58.87
24234;BME280;12365;43.554;1.388;2022-08-19T06:18:51;100399.38;;;21.95;58.89
24234;BME280;12365;43.554;1.388;2022-08-19T06:21:25;100402.09;;;22.01;58.69
24234;BME280;12365;43.554;1.388;2022-08-19T06:23:52;100403.91;;;22.07;58.84
24234;BME280;12365;43.554;1.388;2022-08-19T06:26:20;100403.06;;;22.08;58.71
24234;BME280;12365;43.554;1.388;2022-08-19T06:28:46;100414.56;;;22.08;58.74
24234;BME280;12365;43.554;1.388;2022-08-19T06:31:14;100414.56;;;22.08;58.70
24234;BME280;12365;43.554;1.388;2022-08-19T06:33:42;100412.78;;;22.07;58.78
24234;BME280;12365;43.554;1.388;2022-08-19T06:36:08;100412.81;;;22.09;58.75
24234;BME280;12365;43.554;1.388;2022-08-19T06:38:40;100419.91;;;22.12;58.51
24234;BME280;12365;43.554;1.388;2022-08-19T06:41:05;100416.38;;;22.13;58.63
24234;BME280;12365;43.554;1.388;2022-08-19T06:43:31;100426.22;;;22.18;58.65
24234;BME280;12365;43.554;1.388;2022-08-19T06:45:57;100421.84;;;22.22;58.57
24234;BME280;12365;43.554;1.388;2022-08-19T06:48:24;100425.44;;;22.27;58.45
24234;BME280;12365;43.554;1.388;2022-08-19T06:50:49;100421.09;;;22.34;58.22
24234;BME280;12365;43.554;1.388;2022-08-19T06:53:16;100414.94;;;22.39;58.26
24234;BME280;12365;43.554;1.388;2022-08-19T06:55:44;100424.75;;;22.46;58.03
24234;BME280;12365;43.554;1.388;2022-08-19T06:58:10;100424.00;;;22.60;57.99
24234;BME280;12365;43.554;1.388;2022-08-19T07:00:36;100422.28;;;22.68;57.79
24234;BME280;12365;43.554;1.388;2022-08-19T07:03:02;100419.69;;;22.76;57.72
24234;BME280;12365;43.554;1.388;2022-08-19T07:05:27;100425.06;;;22.80;57.48
24234;BME280;12365;43.554;1.388;2022-08-19T07:07:53;100424.16;;;22.81;57.45
24234;BME280;12365;43.554;1.388;2022-08-19T07:10:18;100430.34;;;22.76;57.61
24234;BME280;12365;43.554;1.388;2022-08-19T07:12:44;100430.34;;;22.74;57.41
24234;BME280;12365;43.554;1.388;2022-08-19T07:15:10;100433.00;;;22.74;57.47
24234;BME280;12365;43.554;1.388;2022-08-19T07:17:36;100433.00;;;22.74;57.47
24234;BME280;12365;43.554;1.388;2022-08-19T07:20:06;100434.81;;;22.81;57.37
24234;BME280;12365;43.554;1.388;2022-08-19T07:22:33;100443.72;;;22.83;57.36
24234;BME280;12365;43.554;1.388;2022-08-19T07:24:59;100438.44;;;22.91;57.02
24234;BME280;12365;43.554;1.388;2022-08-19T07:27:24;100449.13;;;22.92;56.92
24234;BME280;12365;43.554;1.388;2022-08-19T07:29:51;100446.47;;;22.96;56.81
24234;BME280;12365;43.554;1.388;2022-08-19T07:32:16;100452.69;;;22.91;56.98
24234;BME280;12365;43.554;1.388;2022-08-19T07:34:42;100457.03;;;22.85;56.80
24234;BME280;12365;43.554;1.388;2022-08-19T07:37:07;100457.91;;;22.82;56.92
24234;BME280;12365;43.554;1.388;2022-08-19T07:39:35;100461.47;;;22.84;56.84
24234;BME280;12365;43.554;1.388;2022-08-19T07:42:04;100451.72;;;22.86;57.05
24234;BME280;12365;43.554;1.388;2022-08-19T07:44:32;100452.81;;;23.08;56.42
24234;BME280;12365;43.554;1.388;2022-08-19T07:46:59;100459.09;;;23.12;56.22
24234;BME280;12365;43.554;1.388;2022-08-19T07:49:26;100464.47;;;23.20;56.37
24234;BME280;12365;43.554;1.388;2022-08-19T07:52:02;100462.69;;;23.22;56.15
24234;BME280;12365;43.554;1.388;2022-08-19T07:54:31;100461.88;;;23.33;55.85
24234;BME280;12365;43.554;1.388;2022-08-19T07:57:00;100461.94;;;23.40;55.67
24234;BME280;12365;43.554;1.388;2022-08-19T07:59:26;100460.22;;;23.49;55.53
24234;BME280;12365;43.554;1.388;2022-08-19T08:01:53;100450.53;;;23.64;55.22
24234;BME280;12365;43.554;1.388;2022-08-19T08:04:19;100449.81;;;23.91;54.90
24234;BME280;12365;43.554;1.388;2022-08-19T08:07:05;100446.34;;;24.13;54.14
24234;BME280;12365;43.554;1.388;2022-08-19T08:09:49;100434.84;;;24.34;53.88
24234;BME280;12365;43.554;1.388;2022-08-19T08:12:24;100434.91;;;24.56;53.49
24234;BME280;12365;43.554;1.388;2022-08-19T08:14:55;100430.47;;;24.56;52.77
24234;BME280;12365;43.554;1.388;2022-08-19T08:17:25;100441.13;;;24.50;53.02
24234;BME280;12365;43.554;1.388;2022-08-19T08:19:51;100437.53;;;24.36;52.84
24234;BME280;12365;43.554;1.388;2022-08-19T08:22:19;100442.78;;;24.20;53.00
24234;BME280;12365;43.554;1.388;2022-08-19T08:27:41;100440.06;;;24.05;53.30
24234;BME280;12365;43.554;1.388;2022-08-19T08:30:09;100442.75;;;24.02;53.58
24234;BME280;12365;43.554;1.388;2022-08-19T08:32:36;100442.75;;;24.05;53.59
24234;BME280;12365;43.554;1.388;2022-08-19T08:35:07;100432.97;;;24.04;53.36
24234;BME280;12365;43.554;1.388;2022-08-19T08:37:33;100441.88;;;24.15;53.06
24234;BME280;12365;43.554;1.388;2022-08-19T08:40:01;100438.34;;;24.12;53.18
24234;BME280;12365;43.554;1.388;2022-08-19T08:42:34;100439.22;;;24.12;53.00
24234;BME280;12365;43.554;1.388;2022-08-19T08:45:13;100438.38;;;24.30;53.05
24234;BME280;12365;43.554;1.388;2022-08-19T08:47:43;100434.03;;;24.64;52.12
24234;BME280;12365;43.554;1.388;2022-08-19T08:50:50;100429.56;;;25.06;51.91
24234;BME280;12365;43.554;1.388;2022-08-19T08:53:10;100432.22;;;25.56;51.37
24234;BME280;12365;43.554;1.388;2022-08-19T08:55:36;100427.72;;;25.68;50.88
24234;BME280;12365;43.554;1.388;2022-08-19T08:58:07;100432.16;;;25.65;50.46
24234;BME280;12365;43.554;1.388;2022-08-19T09:00:43;100434.00;;;25.58;50.82
24234;BME280;12365;43.554;1.388;2022-08-19T09:03:18;100431.34;;;25.38;50.66
24234;BME280;12365;43.554;1.388;2022-08-19T09:06:11;100426.91;;;25.22;50.67
24234;BME280;12365;43.554;1.388;2022-08-19T09:09:09;100443.84;;;25.05;50.83
24234;BME280;12365;43.554;1.388;2022-08-19T09:17:08;100435.81;;;24.62;51.14
24234;BME280;12365;43.554;1.388;2022-08-19T09:19:49;100435.78;;;24.61;51.10
24234;BME280;12365;43.554;1.388;2022-08-19T09:22:15;100429.59;;;24.62;50.97
24234;BME280;12365;43.554;1.388;2022-08-19T09:24:40;100437.59;;;24.67;50.87
24234;BME280;12365;43.554;1.388;2022-08-19T09:27:06;100434.06;;;24.77;50.50
24234;BME280;12365;43.554;1.388;2022-08-19T09:29:31;100430.50;;;24.84;50.41
24234;BME280;12365;43.554;1.388;2022-08-19T09:31:57;100434.06;;;24.89;50.32
24234;BME280;12365;43.554;1.388;2022-08-19T09:34:22;100437.63;;;24.94;50.24
24234;BME280;12365;43.554;1.388;2022-08-19T09:36:48;100434.94;;;24.94;50.38
24234;BME280;12365;43.554;1.388;2022-08-19T09:39:18;100429.59;;;25.02;49.89
24234;BME280;12365;43.554;1.388;2022-08-19T09:41:43;100436.72;;;25.00;49.80
24234;BME280;12365;43.554;1.388;2022-08-19T09:44:08;100430.47;;;24.96;50.02
24234;BME280;12365;43.554;1.388;2022-08-19T09:46:36;100433.16;;;24.88;50.07
24234;BME280;12365;43.554;1.388;2022-08-19T09:49:01;100438.47;;;24.88;50.23
24234;BME280;12365;43.554;1.388;2022-08-19T09:51:27;100427.81;;;24.87;50.18
24234;BME280;12365;43.554;1.388;2022-08-19T09:53:54;100434.06;;;24.92;50.22
24234;BME280;12365;43.554;1.388;2022-08-19T09:56:23;100438.50;;;24.90;49.81
24234;BME280;12365;43.554;1.388;2022-08-19T09:58:49;100442.06;;;24.89;50.13
24234;BME280;12365;43.554;1.388;2022-08-19T10:01:20;100434.03;;;24.94;49.95
24234;BME280;12365;43.554;1.388;2022-08-19T10:03:50;100440.28;;;24.97;49.61
24234;BME280;12365;43.554;1.388;2022-08-19T10:06:18;100434.94;;;24.91;50.02
24234;BME280;12365;43.554;1.388;2022-08-19T10:08:44;100425.16;;;24.90;50.29
24234;BME280;12365;43.554;1.388;2022-08-19T10:11:10;100429.59;;;25.13;49.94
24234;BME280;12365;43.554;1.388;2022-08-19T10:13:36;100436.72;;;25.23;49.71
24234;BME280;12365;43.554;1.388;2022-08-19T10:16:07;100423.38;;;25.32;49.44
24234;BME280;12365;43.554;1.388;2022-08-19T10:18:35;100426.03;;;25.40;49.13
24234;BME280;12365;43.554;1.388;2022-08-19T10:21:07;100426.88;;;25.46;49.09
24234;BME280;12365;43.554;1.388;2022-08-19T10:23:34;100421.50;;;25.59;48.90
24234;BME280;12365;43.554;1.388;2022-08-19T10:26:00;100432.16;;;25.74;48.91
24234;BME280;12365;43.554;1.388;2022-08-19T10:28:26;100422.31;;;25.88;48.56
24234;BME280;12365;43.554;1.388;2022-08-19T10:30:51;100422.28;;;26.01;48.11
24234;BME280;12365;43.554;1.388;2022-08-19T10:33:17;100421.31;;;26.14;47.97
24234;BME280;12365;43.554;1.388;2022-08-19T10:35:42;100412.31;;;26.27;47.91
24234;BME280;12365;43.554;1.388;2022-08-19T10:38:12;100416.63;;;26.48;47.37
24234;BME280;12365;43.554;1.388;2022-08-19T10:40:37;100411.97;;;26.78;47.60
24234;BME280;12365;43.554;1.388;2022-08-19T10:43:02;100408.13;;;27.10;46.77
24234;BME280;12365;43.554;1.388;2022-08-19T10:45:28;100416.09;;;27.20;46.50
24234;BME280;12365;43.554;1.388;2022-08-19T10:47:53;100408.03;;;27.20;46.58
24234;BME280;12365;43.554;1.388;2022-08-19T10:50:19;100413.38;;;27.23;46.35
24234;BME280;12365;43.554;1.388;2022-08-19T10:53:05;100416.00;;;27.28;46.19
24234;BME280;12365;43.554;1.388;2022-08-19T10:55:30;100414.84;;;27.52;45.83
24234;BME280;12365;43.554;1.388;2022-08-19T10:58:19;100407.47;;;27.73;45.37
24234;BME280;12365;43.554;1.388;2022-08-19T11:00:56;100410.69;;;28.02;45.15
24234;BME280;12365;43.554;1.388;2022-08-19T11:03:24;100398.56;;;28.37;44.67
24234;BME280;12365;43.554;1.388;2022-08-19T11:06:04;100399.38;;;28.41;44.44
24234;BME280;12365;43.554;1.388;2022-08-19T11:08:30;100405.25;;;28.05;44.26
24234;BME280;12365;43.554;1.388;2022-08-19T11:10:59;100396.59;;;27.88;44.52
24234;BME280;12365;43.554;1.388;2022-08-19T11:13:30;100386.41;;;28.13;44.01
24234;BME280;12365;43.554;1.388;2022-08-19T11:16:07;100396.66;;;28.47;43.83
24234;BME280;12365;43.554;1.388;2022-08-19T11:18:39;100392.66;;;28.72;43.32
24234;BME280;12365;43.554;1.388;2022-08-19T11:23:38;100380.25;;;29.18;42.37
24234;BME280;12365;43.554;1.388;2022-08-19T11:26:03;100393.41;;;29.32;41.97
24234;BME280;12365;43.554;1.388;2022-08-19T11:28:29;100385.88;;;29.51;42.11
24234;BME280;12365;43.554;1.388;2022-08-19T11:30:54;100380.91;;;29.76;41.41
24234;BME280;12365;43.554;1.388;2022-08-19T11:33:20;100375.03;;;29.99;41.26
24234;BME280;12365;43.554;1.388;2022-08-19T11:35:45;100376.59;;;30.08;40.84
24234;BME280;12365;43.554;1.388;2022-08-19T11:38:10;100386.91;;;29.89;40.60
24234;BME280;12365;43.554;1.388;2022-08-19T11:40:36;100381.88;;;29.72;40.97
24234;BME280;12365;43.554;1.388;2022-08-19T11:43:02;100385.16;;;29.41;40.91
24234;BME280;12365;43.554;1.388;2022-08-19T11:45:28;100378.50;;;29.14;41.04
24234;BME280;12365;43.554;1.388;2022-08-19T11:47:54;100370.50;;;29.12;40.48
24234;BME280;12365;43.554;1.388;2022-08-19T11:50:20;100372.66;;;28.89;40.49
24234;BME280;12365;43.554;1.388;2022-08-19T11:52:46;100366.75;;;28.68;40.87
24234;BME280;12365;43.554;1.388;2022-08-19T11:55:13;100366.19;;;28.49;41.02
24234;BME280;12365;43.554;1.388;2022-08-19T11:57:39;100367.88;;;28.55;40.93
24234;BME280;12365;43.554;1.388;2022-08-19T12:00:07;100368.66;;;28.62;40.65
24234;BME280;12365;43.554;1.388;2022-08-19T12:02:33;100364.38;;;28.50;40.52
24234;BME280;12365;43.554;1.388;2022-08-19T12:04:58;100360.97;;;28.36;40.92
24234;BME280;12365;43.554;1.388;2022-08-19T12:07:28;100368.22;;;28.30;40.85
24234;BME280;12365;43.554;1.388;2022-08-19T12:09:55;100366.41;;;28.33;40.65
24234;BME280;12365;43.554;1.388;2022-08-19T12:12:21;100363.59;;;28.40;40.49
24234;BME280;12365;43.554;1.388;2022-08-19T12:14:47;100362.66;;;28.43;40.59
24234;BME280;12365;43.554;1.388;2022-08-19T12:17:12;100365.31;;;28.46;40.41
24234;BME280;12365;43.554;1.388;2022-08-19T12:19:38;100367.00;;;28.55;40.45
24234;BME280;12365;43.554;1.388;2022-08-19T12:22:04;100360.56;;;28.65;40.51
24234;BME280;12365;43.554;1.388;2022-08-19T12:24:31;100358.56;;;28.76;40.12
24234;BME280;12365;43.554;1.388;2022-08-19T12:26:58;100352.06;;;28.89;39.73
24234;BME280;12365;43.554;1.388;2022-08-19T12:29:26;100355.78;;;28.82;39.72
24234;BME280;12365;43.554;1.388;2022-08-19T12:31:55;100356.84;;;28.72;39.81
24234;BME280;12365;43.554;1.388;2022-08-19T12:34:27;100350.75;;;28.64;40.10
24234;BME280;12365;43.554;1.388;2022-08-19T12:36:58;100345.19;;;28.73;40.04
24234;BME280;12365;43.554;1.388;2022-08-19T12:39:24;100337.34;;;29.12;39.77
24234;BME280;12365;43.554;1.388;2022-08-19T12:41:50;100338.44;;;29.47;39.39
24234;BME280;12365;43.554;1.388;2022-08-19T12:44:16;100350.84;;;29.54;38.80
24234;BME280;12365;43.554;1.388;2022-08-19T12:46:42;100342.28;;;29.33;39.01
24234;BME280;12365;43.554;1.388;2022-08-19T12:49:07;100344.31;;;29.22;38.82
24234;BME280;12365;43.554;1.388;2022-08-19T12:51:32;100337.69;;;29.40;38.78
24234;BME280;12365;43.554;1.388;2022-08-19T12:53:58;100342.41;;;29.72;38.16
24234;BME280;12365;43.554;1.388;2022-08-19T12:56:24;100333.09;;;29.87;38.34
24234;BME280;12365;43.554;1.388;2022-08-19T12:58:50;100342.56;;;30.05;37.48
24234;BME280;12365;43.554;1.388;2022-08-19T13:01:16;100336.19;;;30.11;37.49
24234;BME280;12365;43.554;1.388;2022-08-19T13:03:45;100328.50;;;29.92;37.60
24234;BME280;12365;43.554;1.388;2022-08-19T13:06:10;100322.78;;;29.67;37.39